sensor_id;sensor_type;location;lat;lon;timestamp;temperature;humidity
46117;DHT22;32591;48.102;11.772;2023-06-14T00:01:57;14.70;71.50
46117;DHT22;32591;48.102;11.772;2023-06-14T00:04:25;14.70;71.50
46117;DHT22;32591;48.102;11.772;2023-06-14T00:06:53;14.60;72.00
46117;DHT22;32591;48.102;11.772;2023-06-14T00:09:22;14.60;72.80
46117;DHT22;32591;48.102;11.772;2023-06-14T00:11:49;14.40;72.50
46117;DHT22;32591;48.102;11.772;2023-06-14T00:14:16;14.50;72.90
46117;DHT22;32591;48.102;11.772;2023-06-14T00:16:43;14.50;73.40
46117;DHT22;32591;48.102;11.772;2023-06-14T00:19:10;14.40;73.20
46117;DHT22;32591;48.102;11.772;2023-06-14T00:21:38;14.40;73.20
46117;DHT22;32591;48.102;11.772;2023-06-14T00:24:07;14.30;73.40
46117;DHT22;32591;48.102;11.772;2023-06-14T00:26:34;14.30;73.40
46117;DHT22;32591;48.102;11.772;2023-06-14T00:29:01;14.30;73.50
46117;DHT22;32591;48.102;11.772;2023-06-14T00:31:28;14.30;73.50
46117;DHT22;32591;48.102;11.772;2023-06-14T00:33:56;14.30;74.00
46117;DHT22;32591;48.102;11.772;2023-06-14T00:36:22;14.20;74.70
46117;DHT22;32591;48.102;11.772;2023-06-14T00:38:51;14.10;74.80
46117;DHT22;32591;48.102;11.772;2023-06-14T00:41:18;14.10;75.10
46117;DHT22;32591;48.102;11.772;2023-06-14T00:43:45;13.90;76.10
46117;DHT22;32591;48.102;11.772;2023-06-14T00:46:11;13.90;76.70
46117;DHT22;32591;48.102;11.772;2023-06-14T00:48:39;13.80;77.10
46117;DHT22;32591;48.102;11.772;2023-06-14T00:51:06;13.80;77.30
46117;DHT22;32591;48.102;11.772;2023-06-14T00:53:33;13.80;77.90
46117;DHT22;32591;48.102;11.772;2023-06-14T00:56:03;13.60;77.90
46117;DHT22;32591;48.102;11.772;2023-06-14T00:58:30;13.60;78.20
46117;DHT22;32591;48.102;11.772;2023-06-14T01:00:58;13.50;78.50
46117;DHT22;32591;48.102;11.772;2023-06-14T01:03:25;13.50;78.40
46117;DHT22;32591;48.102;11.772;2023-06-14T01:05:59;13.40;78.80
46117;DHT22;32591;48.102;11.772;2023-06-14T01:08:43;13.40;79.00
46117;DHT22;32591;48.102;11.772;2023-06-14T01:11:18;13.40;79.20
46117;DHT22;32591;48.102;11.772;2023-06-14T01:13:50;13.30;79.30
46117;DHT22;32591;48.102;11.772;2023-06-14T01:16:18;13.30;79.70
46117;DHT22;32591;48.102;11.772;2023-06-14T01:18:46;13.20;79.60
46117;DHT22;32591;48.102;11.772;2023-06-14T01:21:21;13.20;79.50
46117;DHT22;32591;48.102;11.772;2023-06-14T01:23:51;13.20;79.60
46117;DHT22;32591;48.102;11.772;2023-06-14T01:26:20;13.10;79.90
46117;DHT22;32591;48.102;11.772;2023-06-14T01:28:48;13.10;80.30
46117;DHT22;32591;48.102;11.772;2023-06-14T01:31:20;13.00;80.40
46117;DHT22;32591;48.102;11.772;2023-06-14T01:33:48;13.00;80.70
46117;DHT22;32591;48.102;11.772;2023-06-14T01:36:17;12.90;80.80
46117;DHT22;32591;48.102;11.772;2023-06-14T01:38:46;12.90;81.30
46117;DHT22;32591;48.102;11.772;2023-06-14T01:41:15;12.90;81.80
46117;DHT22;32591;48.102;11.772;2023-06-14T01:43:44;12.80;81.80
46117;DHT22;32591;48.102;11.772;2023-06-14T01:46:13;12.80;82.00
46117;DHT22;32591;48.102;11.772;2023-06-14T01:48:42;12.80;82.20
46117;DHT22;32591;48.102;11.772;2023-06-14T01:51:09;12.70;82.20
46117;DHT22;32591;48.102;11.772;2023-06-14T01:53:36;12.70;82.70
46117;DHT22;32591;48.102;11.772;2023-06-14T01:56:03;12.70;83.00
46117;DHT22;32591;48.102;11.772;2023-06-14T01:58:32;12.60;83.40
46117;DHT22;32591;48.102;11.772;2023-06-14T02:00:59;12.60;83.80
46117;DHT22;32591;48.102;11.772;2023-06-14T02:03:26;12.50;84.10
46117;DHT22;32591;48.102;11.772;2023-06-14T02:05:53;12.50;84.60
46117;DHT22;32591;48.102;11.772;2023-06-14T02:08:21;12.50;84.80
46117;DHT22;32591;48.102;11.772;2023-06-14T02:10:47;12.40;84.80
46117;DHT22;32591;48.102;11.772;2023-06-14T02:13:14;12.30;85.30
46117;DHT22;32591;48.102;11.772;2023-06-14T02:15:42;12.30;85.50
46117;DHT22;32591;48.102;11.772;2023-06-14T02:18:11;12.30;85.80
46117;DHT22;32591;48.102;11.772;2023-06-14T02:20:38;12.20;85.90
46117;DHT22;32591;48.102;11.772;2023-06-14T02:23:05;12.20;86.00
46117;DHT22;32591;48.102;11.772;2023-06-14T02:25:33;12.10;85.70
46117;DHT22;32591;48.102;11.772;2023-06-14T02:28:01;12.10;85.50
46117;DHT22;32591;48.102;11.772;2023-06-14T02:30:28;12.10;85.50
46117;DHT22;32591;48.102;11.772;2023-06-14T02:32:56;12.00;85.80
46117;DHT22;32591;48.102;11.772;2023-06-14T02:35:24;11.90;86.30
46117;DHT22;32591;48.102;11.772;2023-06-14T02:37:52;12.00;86.60
46117;DHT22;32591;48.102;11.772;2023-06-14T02:40:19;11.90;86.50
46117;DHT22;32591;48.102;11.772;2023-06-14T02:42:46;11.80;86.90
46117;DHT22;32591;48.102;11.772;2023-06-14T02:45:13;11.80;87.30
46117;DHT22;32591;48.102;11.772;2023-06-14T02:47:40;11.80;87.60
46117;DHT22;32591;48.102;11.772;2023-06-14T02:50:09;11.70;87.60
46117;DHT22;32591;48.102;11.772;2023-06-14T02:52:36;11.70;87.90
46117;DHT22;32591;48.102;11.772;2023-06-14T02:55:04;11.70;88.10
46117;DHT22;32591;48.102;11.772;2023-06-14T02:57:31;11.60;88.30
46117;DHT22;32591;48.102;11.772;2023-06-14T02:59:58;11.60;88.60
46117;DHT22;32591;48.102;11.772;2023-06-14T03:02:26;11.60;88.80
46117;DHT22;32591;48.102;11.772;2023-06-14T03:04:53;11.60;88.80
46117;DHT22;32591;48.102;11.772;2023-06-14T03:07:21;11.60;88.90
46117;DHT22;32591;48.102;11.772;2023-06-14T03:09:49;11.60;89.30
46117;DHT22;32591;48.102;11.772;2023-06-14T03:12:16;11.50;89.40
46117;DHT22;32591;48.102;11.772;2023-06-14T03:14:43;11.50;90.00
46117;DHT22;32591;48.102;11.772;2023-06-14T03:17:11;11.50;90.00
46117;DHT22;32591;48.102;11.772;2023-06-14T03:19:38;11.40;90.20
46117;DHT22;32591;48.102;11.772;2023-06-14T03:22:06;11.40;90.30
46117;DHT22;32591;48.102;11.772;2023-06-14T03:24:35;11.40;90.60
46117;DHT22;32591;48.102;11.772;2023-06-14T03:27:03;11.40;90.70
46117;DHT22;32591;48.102;11.772;2023-06-14T03:29:30;11.30;91.00
46117;DHT22;32591;48.102;11.772;2023-06-14T03:31:58;11.30;91.30
46117;DHT22;32591;48.102;11.772;2023-06-14T03:34:26;11.30;91.70
46117;DHT22;32591;48.102;11.772;2023-06-14T03:36:53;11.40;91.50
46117;DHT22;32591;48.102;11.772;2023-06-14T03:39:20;11.30;91.50
46117;DHT22;32591;48.102;11.772;2023-06-14T03:41:48;11.30;91.50
46117;DHT22;32591;48.102;11.772;2023-06-14T03:44:16;11.40;91.70
46117;DHT22;32591;48.102;11.772;2023-06-14T03:46:44;11.40;91.70
46117;DHT22;32591;48.102;11.772;2023-06-14T03:49:11;11.40;91.80
46117;DHT22;32591;48.102;11.772;2023-06-14T03:51:39;11.40;91.90
46117;DHT22;32591;48.102;11.772;2023-06-14T03:54:06;11.40;91.80
46117;DHT22;32591;48.102;11.772;2023-06-14T03:56:34;11.40;92.00
46117;DHT22;32591;48.102;11.772;2023-06-14T03:59:02;11.40;92.10
46117;DHT22;32591;48.102;11.772;2023-06-14T04:01:29;11.40;92.20
46117;DHT22;32591;48.102;11.772;2023-06-14T04:03:57;11.40;92.30
46117;DHT22;32591;48.102;11.772;2023-06-14T04:06:24;11.50;92.40
46117;DHT22;32591;48.102;11.772;2023-06-14T04:08:58;11.60;92.50
46117;DHT22;32591;48.102;11.772;2023-06-14T04:11:29;11.60;92.40
46117;DHT22;32591;48.102;11.772;2023-06-14T04:13:56;11.60;92.40
46117;DHT22;32591;48.102;11.772;2023-06-14T04:16:24;11.50;91.90
46117;DHT22;32591;48.102;11.772;2023-06-14T04:18:51;11.60;92.20
46117;DHT22;32591;48.102;11.772;2023-06-14T04:21:18;11.60;92.40
46117;DHT22;32591;48.102;11.772;2023-06-14T04:23:46;11.70;92.60
46117;DHT22;32591;48.102;11.772;2023-06-14T04:26:13;11.70;92.50
46117;DHT22;32591;48.102;11.772;2023-06-14T04:28:40;11.80;92.40
46117;DHT22;32591;48.102;11.772;2023-06-14T04:31:07;11.80;92.20
46117;DHT22;32591;48.102;11.772;2023-06-14T04:33:36;11.80;92.10
46117;DHT22;32591;48.102;11.772;2023-06-14T04:36:09;11.90;92.10
46117;DHT22;32591;48.102;11.772;2023-06-14T04:38:37;11.90;92.00
46117;DHT22;32591;48.102;11.772;2023-06-14T04:41:04;12.00;92.30
46117;DHT22;32591;48.102;11.772;2023-06-14T04:43:31;12.10;92.20
46117;DHT22;32591;48.102;11.772;2023-06-14T04:46:04;12.10;92.00
46117;DHT22;32591;48.102;11.772;2023-06-14T04:51:06;12.20;92.90
46117;DHT22;32591;48.102;11.772;2023-06-14T04:53:33;12.30;93.20
46117;DHT22;32591;48.102;11.772;2023-06-14T04:56:00;12.40;93.90
46117;DHT22;32591;48.102;11.772;2023-06-14T04:58:28;12.60;94.90
46117;DHT22;32591;48.102;11.772;2023-06-14T05:00:56;12.70;94.40
46117;DHT22;32591;48.102;11.772;2023-06-14T05:03:24;12.90;94.30
46117;DHT22;32591;48.102;11.772;2023-06-14T05:05:53;13.00;93.90
46117;DHT22;32591;48.102;11.772;2023-06-14T05:08:20;13.10;93.90
46117;DHT22;32591;48.102;11.772;2023-06-14T05:10:49;13.30;93.60
46117;DHT22;32591;48.102;11.772;2023-06-14T05:13:16;13.40;93.90
46117;DHT22;32591;48.102;11.772;2023-06-14T05:15:44;13.50;93.50
46117;DHT22;32591;48.102;11.772;2023-06-14T05:18:12;13.60;93.30
46117;DHT22;32591;48.102;11.772;2023-06-14T05:20:40;13.70;92.90
46117;DHT22;32591;48.102;11.772;2023-06-14T05:23:10;13.80;92.90
46117;DHT22;32591;48.102;11.772;2023-06-14T05:25:42;13.90;93.10
46117;DHT22;32591;48.102;11.772;2023-06-14T05:28:09;14.00;91.60
46117;DHT22;32591;48.102;11.772;2023-06-14T05:30:37;14.10;92.70
46117;DHT22;32591;48.102;11.772;2023-06-14T05:33:05;14.20;92.00
46117;DHT22;32591;48.102;11.772;2023-06-14T05:35:32;14.20;92.40
46117;DHT22;32591;48.102;11.772;2023-06-14T05:37:59;14.20;91.30
46117;DHT22;32591;48.102;11.772;2023-06-14T05:40:28;14.20;91.60
46117;DHT22;32591;48.102;11.772;2023-06-14T05:42:55;14.30;91.70
46117;DHT22;32591;48.102;11.772;2023-06-14T05:45:22;14.40;91.80
46117;DHT22;32591;48.102;11.772;2023-06-14T05:47:49;14.60;91.40
46117;DHT22;32591;48.102;11.772;2023-06-14T05:50:16;14.80;91.10
46117;DHT22;32591;48.102;11.772;2023-06-14T05:52:43;14.90;91.30
46117;DHT22;32591;48.102;11.772;2023-06-14T05:55:11;14.90;91.30
46117;DHT22;32591;48.102;11.772;2023-06-14T05:57:39;15.00;90.70
46117;DHT22;32591;48.102;11.772;2023-06-14T06:00:08;15.10;90.50
46117;DHT22;32591;48.102;11.772;2023-06-14T06:02:40;15.10;90.50
46117;DHT22;32591;48.102;11.772;2023-06-14T06:05:08;15.20;90.00
46117;DHT22;32591;48.102;11.772;2023-06-14T06:07:35;15.30;89.70
46117;DHT22;32591;48.102;11.772;2023-06-14T06:10:03;15.30;89.60
46117;DHT22;32591;48.102;11.772;2023-06-14T06:12:31;15.30;89.70
46117;DHT22;32591;48.102;11.772;2023-06-14T06:15:00;15.20;89.50
46117;DHT22;32591;48.102;11.772;2023-06-14T06:17:27;15.30;90.10
46117;DHT22;32591;48.102;11.772;2023-06-14T06:19:54;15.40;89.70
46117;DHT22;32591;48.102;11.772;2023-06-14T06:22:21;15.50;89.30
46117;DHT22;32591;48.102;11.772;2023-06-14T06:24:48;15.60;88.90
46117;DHT22;32591;48.102;11.772;2023-06-14T06:27:15;15.80;88.40
46117;DHT22;32591;48.102;11.772;2023-06-14T06:29:44;16.00;87.80
46117;DHT22;32591;48.102;11.772;2023-06-14T06:32:12;16.10;86.80
46117;DHT22;32591;48.102;11.772;2023-06-14T06:34:39;16.20;86.40
46117;DHT22;32591;48.102;11.772;2023-06-14T06:37:06;16.40;85.20
46117;DHT22;32591;48.102;11.772;2023-06-14T06:39:33;16.50;84.50
46117;DHT22;32591;48.102;11.772;2023-06-14T06:42:01;16.60;84.40
46117;DHT22;32591;48.102;11.772;2023-06-14T06:44:27;16.60;83.60
46117;DHT22;32591;48.102;11.772;2023-06-14T06:46:54;16.60;83.20
46117;DHT22;32591;48.102;11.772;2023-06-14T06:49:23;16.60;82.60
46117;DHT22;32591;48.102;11.772;2023-06-14T06:51:59;16.70;83.20
46117;DHT22;32591;48.102;11.772;2023-06-14T06:54:27;16.80;82.60
46117;DHT22;32591;48.102;11.772;2023-06-14T06:56:54;16.90;82.50
46117;DHT22;32591;48.102;11.772;2023-06-14T06:59:21;16.90;81.90
46117;DHT22;32591;48.102;11.772;2023-06-14T07:01:48;17.10;82.40
46117;DHT22;32591;48.102;11.772;2023-06-14T07:04:15;17.20;82.40
46117;DHT22;32591;48.102;11.772;2023-06-14T07:06:46;17.30;81.70
46117;DHT22;32591;48.102;11.772;2023-06-14T07:09:13;17.50;80.90
46117;DHT22;32591;48.102;11.772;2023-06-14T07:11:42;17.50;80.10
46117;DHT22;32591;48.102;11.772;2023-06-14T07:14:10;17.50;80.90
46117;DHT22;32591;48.102;11.772;2023-06-14T07:16:37;17.50;81.00
46117;DHT22;32591;48.102;11.772;2023-06-14T07:19:04;17.60;80.60
46117;DHT22;32591;48.102;11.772;2023-06-14T07:21:31;17.90;79.00
46117;DHT22;32591;48.102;11.772;2023-06-14T07:23:59;18.00;79.00
46117;DHT22;32591;48.102;11.772;2023-06-14T07:26:26;18.20;77.70
46117;DHT22;32591;48.102;11.772;2023-06-14T07:28:53;18.30;77.50
46117;DHT22;32591;48.102;11.772;2023-06-14T07:31:20;18.40;76.30
46117;DHT22;32591;48.102;11.772;2023-06-14T07:33:47;18.40;76.20
46117;DHT22;32591;48.102;11.772;2023-06-14T07:36:14;18.40;76.00
46117;DHT22;32591;48.102;11.772;2023-06-14T07:38:43;18.40;74.80
46117;DHT22;32591;48.102;11.772;2023-06-14T07:41:11;18.50;74.60
46117;DHT22;32591;48.102;11.772;2023-06-14T07:43:38;18.60;74.40
46117;DHT22;32591;48.102;11.772;2023-06-14T07:46:05;18.70;73.60
46117;DHT22;32591;48.102;11.772;2023-06-14T07:48:33;18.90;73.10
46117;DHT22;32591;48.102;11.772;2023-06-14T07:51:00;19.00;72.40
46117;DHT22;32591;48.102;11.772;2023-06-14T07:53:28;19.10;72.20
46117;DHT22;32591;48.102;11.772;2023-06-14T07:55:56;19.10;72.10
46117;DHT22;32591;48.102;11.772;2023-06-14T07:58:24;19.30;71.20
46117;DHT22;32591;48.102;11.772;2023-06-14T08:00:51;19.40;71.50
46117;DHT22;32591;48.102;11.772;2023-06-14T08:03:18;19.60;70.80
46117;DHT22;32591;48.102;11.772;2023-06-14T08:05:45;19.70;71.10
46117;DHT22;32591;48.102;11.772;2023-06-14T08:08:12;19.80;69.10
46117;DHT22;32591;48.102;11.772;2023-06-14T08:10:39;19.90;69.70
46117;DHT22;32591;48.102;11.772;2023-06-14T08:13:06;20.00;68.70
46117;DHT22;32591;48.102;11.772;2023-06-14T08:15:34;20.00;66.60
46117;DHT22;32591;48.102;11.772;2023-06-14T08:18:01;20.00;66.60
46117;DHT22;32591;48.102;11.772;2023-06-14T08:20:28;20.20;66.30
46117;DHT22;32591;48.102;11.772;2023-06-14T08:22:57;20.30;64.90
46117;DHT22;32591;48.102;11.772;2023-06-14T08:25:24;20.40;64.60
46117;DHT22;32591;48.102;11.772;2023-06-14T08:27:51;20.40;65.00
46117;DHT22;32591;48.102;11.772;2023-06-14T08:30:18;20.50;64.90
46117;DHT22;32591;48.102;11.772;2023-06-14T08:32:47;20.70;63.40
46117;DHT22;32591;48.102;11.772;2023-06-14T08:35:14;21.00;63.20
46117;DHT22;32591;48.102;11.772;2023-06-14T08:37:41;21.10;63.20
46117;DHT22;32591;48.102;11.772;2023-06-14T08:40:20;21.20;61.30
46117;DHT22;32591;48.102;11.772;2023-06-14T08:42:50;21.30;62.30
46117;DHT22;32591;48.102;11.772;2023-06-14T08:45:18;21.20;60.90
46117;DHT22;32591;48.102;11.772;2023-06-14T08:47:47;21.40;61.90
46117;DHT22;32591;48.102;11.772;2023-06-14T08:50:20;21.30;60.40
46117;DHT22;32591;48.102;11.772;2023-06-14T08:52:53;21.50;58.80
46117;DHT22;32591;48.102;11.772;2023-06-14T08:55:23;21.70;60.30
46117;DHT22;32591;48.102;11.772;2023-06-14T08:57:54;21.70;59.60
46117;DHT22;32591;48.102;11.772;2023-06-14T09:00:23;21.70;56.90
46117;DHT22;32591;48.102;11.772;2023-06-14T09:02:52;21.70;57.60
46117;DHT22;32591;48.102;11.772;2023-06-14T09:05:24;21.80;57.20
46117;DHT22;32591;48.102;11.772;2023-06-14T09:07:52;21.80;57.40
46117;DHT22;32591;48.102;11.772;2023-06-14T09:10:21;21.90;56.20
46117;DHT22;32591;48.102;11.772;2023-06-14T09:12:48;21.80;56.90
46117;DHT22;32591;48.102;11.772;2023-06-14T09:15:16;21.90;56.50
46117;DHT22;32591;48.102;11.772;2023-06-14T09:17:43;22.00;56.90
46117;DHT22;32591;48.102;11.772;2023-06-14T09:20:11;22.10;57.40
46117;DHT22;32591;48.102;11.772;2023-06-14T09:22:43;22.20;57.30
46117;DHT22;32591;48.102;11.772;2023-06-14T09:25:11;22.20;56.00
46117;DHT22;32591;48.102;11.772;2023-06-14T09:27:41;22.30;57.00
46117;DHT22;32591;48.102;11.772;2023-06-14T09:30:09;22.20;56.00
46117;DHT22;32591;48.102;11.772;2023-06-14T09:32:38;22.20;57.40
46117;DHT22;32591;48.102;11.772;2023-06-14T09:35:06;22.20;57.00
46117;DHT22;32591;48.102;11.772;2023-06-14T09:37:36;22.30;55.80
46117;DHT22;32591;48.102;11.772;2023-06-14T09:40:05;22.50;55.80
46117;DHT22;32591;48.102;11.772;2023-06-14T09:42:33;22.50;54.90
46117;DHT22;32591;48.102;11.772;2023-06-14T09:45:02;22.50;54.50
46117;DHT22;32591;48.102;11.772;2023-06-14T09:47:30;22.50;56.20
46117;DHT22;32591;48.102;11.772;2023-06-14T09:49:58;22.60;54.60
46117;DHT22;32591;48.102;11.772;2023-06-14T09:52:27;22.80;54.50
46117;DHT22;32591;48.102;11.772;2023-06-14T09:54:59;23.00;54.60
46117;DHT22;32591;48.102;11.772;2023-06-14T09:57:27;23.20;55.50
46117;DHT22;32591;48.102;11.772;2023-06-14T09:59:59;23.30;53.80
46117;DHT22;32591;48.102;11.772;2023-06-14T10:02:35;23.50;53.40
46117;DHT22;32591;48.102;11.772;2023-06-14T10:05:04;23.60;53.00
46117;DHT22;32591;48.102;11.772;2023-06-14T10:07:35;23.70;53.10
46117;DHT22;32591;48.102;11.772;2023-06-14T10:10:08;23.70;52.90
46117;DHT22;32591;48.102;11.772;2023-06-14T10:12:35;23.80;53.60
46117;DHT22;32591;48.102;11.772;2023-06-14T10:15:04;23.80;52.90
46117;DHT22;32591;48.102;11.772;2023-06-14T10:20:27;23.20;53.10
46117;DHT22;32591;48.102;11.772;2023-06-14T10:23:01;22.90;54.40
46117;DHT22;32591;48.102;11.772;2023-06-14T10:25:32;22.70;53.50
46117;DHT22;32591;48.102;11.772;2023-06-14T10:28:14;22.70;55.50
46117;DHT22;32591;48.102;11.772;2023-06-14T10:31:04;22.90;53.30
46117;DHT22;32591;48.102;11.772;2023-06-14T10:33:32;22.90;53.10
46117;DHT22;32591;48.102;11.772;2023-06-14T10:36:26;22.80;52.90
46117;DHT22;32591;48.102;11.772;2023-06-14T10:39:01;22.40;54.20
46117;DHT22;32591;48.102;11.772;2023-06-14T10:41:35;22.20;55.00
46117;DHT22;32591;48.102;11.772;2023-06-14T10:44:32;21.80;55.60
46117;DHT22;32591;48.102;11.772;2023-06-14T10:47:01;21.90;54.70
46117;DHT22;32591;48.102;11.772;2023-06-14T10:49:42;21.90;55.20
46117;DHT22;32591;48.102;11.772;2023-06-14T10:52:12;21.90;55.80
46117;DHT22;32591;48.102;11.772;2023-06-14T10:55:00;22.30;55.80
46117;DHT22;32591;48.102;11.772;2023-06-14T10:57:37;22.80;54.00
46117;DHT22;32591;48.102;11.772;2023-06-14T11:00:07;23.10;55.20
46117;DHT22;32591;48.102;11.772;2023-06-14T11:05:51;23.50;54.40
46117;DHT22;32591;48.102;11.772;2023-06-14T11:08:39;23.60;55.90
46117;DHT22;32591;48.102;11.772;2023-06-14T11:11:13;23.70;54.40
46117;DHT22;32591;48.102;11.772;2023-06-14T11:13:45;23.70;53.60
46117;DHT22;32591;48.102;11.772;2023-06-14T11:16:13;23.70;53.90
46117;DHT22;32591;48.102;11.772;2023-06-14T11:18:41;23.80;53.50
46117;DHT22;32591;48.102;11.772;2023-06-14T11:21:08;24.00;53.00
46117;DHT22;32591;48.102;11.772;2023-06-14T11:23:35;24.00;52.80
46117;DHT22;32591;48.102;11.772;2023-06-14T11:26:02;23.60;52.20
46117;DHT22;32591;48.102;11.772;2023-06-14T11:28:49;23.40;52.30
46117;DHT22;32591;48.102;11.772;2023-06-14T11:31:22;23.10;52.20
46117;DHT22;32591;48.102;11.772;2023-06-14T11:33:49;22.80;52.00
46117;DHT22;32591;48.102;11.772;2023-06-14T11:36:17;22.80;52.70
46117;DHT22;32591;48.102;11.772;2023-06-14T11:38:43;23.10;53.40
46117;DHT22;32591;48.102;11.772;2023-06-14T11:41:10;23.60;54.00
46117;DHT22;32591;48.102;11.772;2023-06-14T11:43:37;23.70;51.80
46117;DHT22;32591;48.102;11.772;2023-06-14T11:46:12;23.80;52.40
46117;DHT22;32591;48.102;11.772;2023-06-14T11:48:42;24.00;51.50
46117;DHT22;32591;48.102;11.772;2023-06-14T11:51:10;23.90;51.40
46117;DHT22;32591;48.102;11.772;2023-06-14T11:53:37;23.70;51.70
46117;DHT22;32591;48.102;11.772;2023-06-14T11:56:05;24.00;52.00
46117;DHT22;32591;48.102;11.772;2023-06-14T11:58:32;24.40;52.10
46117;DHT22;32591;48.102;11.772;2023-06-14T12:00:59;24.70;49.20
46117;DHT22;32591;48.102;11.772;2023-06-14T12:03:28;24.80;49.90
46117;DHT22;32591;48.102;11.772;2023-06-14T12:06:03;24.90;48.80
46117;DHT22;32591;48.102;11.772;2023-06-14T12:08:33;24.90;50.40
46117;DHT22;32591;48.102;11.772;2023-06-14T12:11:04;25.10;49.80
46117;DHT22;32591;48.102;11.772;2023-06-14T12:13:34;25.20;48.30
46117;DHT22;32591;48.102;11.772;2023-06-14T12:16:04;25.00;47.90
46117;DHT22;32591;48.102;11.772;2023-06-14T12:18:33;24.90;48.40
46117;DHT22;32591;48.102;11.772;2023-06-14T12:21:02;25.00;48.90
46117;DHT22;32591;48.102;11.772;2023-06-14T12:23:42;25.10;49.40
46117;DHT22;32591;48.102;11.772;2023-06-14T12:26:13;25.00;48.40
46117;DHT22;32591;48.102;11.772;2023-06-14T12:28:41;24.90;48.90
46117;DHT22;32591;48.102;11.772;2023-06-14T12:31:09;25.10;47.80
46117;DHT22;32591;48.102;11.772;2023-06-14T12:33:39;25.30;49.60
46117;DHT22;32591;48.102;11.772;2023-06-14T12:36:07;25.50;48.30
46117;DHT22;32591;48.102;11.772;2023-06-14T12:38:35;25.50;47.70
46117;DHT22;32591;48.102;11.772;2023-06-14T12:41:05;25.20;47.70
46117;DHT22;32591;48.102;11.772;2023-06-14T12:43:33;24.80;47.90
46117;DHT22;32591;48.102;11.772;2023-06-14T12:46:00;24.20;48.10
46117;DHT22;32591;48.102;11.772;2023-06-14T12:48:28;24.00;49.20
46117;DHT22;32591;48.102;11.772;2023-06-14T12:50:57;24.30;49.40
46117;DHT22;32591;48.102;11.772;2023-06-14T12:53:25;24.40;48.00
46117;DHT22;32591;48.102;11.772;2023-06-14T12:55:52;24.70;49.50
46117;DHT22;32591;48.102;11.772;2023-06-14T12:58:19;25.00;47.50
46117;DHT22;32591;48.102;11.772;2023-06-14T13:00:46;25.40;47.40
46117;DHT22;32591;48.102;11.772;2023-06-14T13:03:13;25.80;47.80
46117;DHT22;32591;48.102;11.772;2023-06-14T13:05:40;26.00;46.40
46117;DHT22;32591;48.102;11.772;2023-06-14T13:08:09;25.80;46.10
46117;DHT22;32591;48.102;11.772;2023-06-14T13:10:37;25.60;46.10
46117;DHT22;32591;48.102;11.772;2023-06-14T13:13:04;25.50;46.00
46117;DHT22;32591;48.102;11.772;2023-06-14T13:15:33;25.50;46.50
46117;DHT22;32591;48.102;11.772;2023-06-14T13:18:00;25.30;46.40
46117;DHT22;32591;48.102;11.772;2023-06-14T13:20:28;24.90;46.60
46117;DHT22;32591;48.102;11.772;2023-06-14T13:22:56;24.80;48.20
46117;DHT22;32591;48.102;11.772;2023-06-14T13:25:24;25.00;46.40
46117;DHT22;32591;48.102;11.772;2023-06-14T13:27:51;24.90;46.50
46117;DHT22;32591;48.102;11.772;2023-06-14T13:30:18;25.00;46.70
46117;DHT22;32591;48.102;11.772;2023-06-14T13:32:47;25.20;46.50
46117;DHT22;32591;48.102;11.772;2023-06-14T13:35:14;25.20;46.10
46117;DHT22;32591;48.102;11.772;2023-06-14T13:37:41;25.40;46.10
46117;DHT22;32591;48.102;11.772;2023-06-14T13:40:09;25.30;46.40
46117;DHT22;32591;48.102;11.772;2023-06-14T13:42:38;25.70;46.70
46117;DHT22;32591;48.102;11.772;2023-06-14T13:45:07;26.10;45.70
46117;DHT22;32591;48.102;11.772;2023-06-14T13:47:34;26.00;45.00
46117;DHT22;32591;48.102;11.772;2023-06-14T13:50:02;25.60;44.70
46117;DHT22;32591;48.102;11.772;2023-06-14T13:52:29;25.10;45.00
46117;DHT22;32591;48.102;11.772;2023-06-14T13:54:56;25.10;45.10
46117;DHT22;32591;48.102;11.772;2023-06-14T13:57:23;25.30;45.70
46117;DHT22;32591;48.102;11.772;2023-06-14T13:59:52;25.70;47.60
46117;DHT22;32591;48.102;11.772;2023-06-14T14:02:21;26.20;45.50
46117;DHT22;32591;48.102;11.772;2023-06-14T14:04:48;26.70;45.90
46117;DHT22;32591;48.102;11.772;2023-06-14T14:07:19;27.10;44.10
46117;DHT22;32591;48.102;11.772;2023-06-14T14:09:46;27.00;42.40
46117;DHT22;32591;48.102;11.772;2023-06-14T14:12:13;26.80;42.20
46117;DHT22;32591;48.102;11.772;2023-06-14T14:14:40;26.10;42.90
46117;DHT22;32591;48.102;11.772;2023-06-14T14:17:09;25.80;42.70
46117;DHT22;32591;48.102;11.772;2023-06-14T14:19:36;26.10;43.20
46117;DHT22;32591;48.102;11.772;2023-06-14T14:22:03;26.00;42.70
46117;DHT22;32591;48.102;11.772;2023-06-14T14:24:30;25.80;43.30
46117;DHT22;32591;48.102;11.772;2023-06-14T14:26:57;25.90;45.40
46117;DHT22;32591;48.102;11.772;2023-06-14T14:29:25;26.30;44.80
46117;DHT22;32591;48.102;11.772;2023-06-14T14:31:54;26.60;43.30
46117;DHT22;32591;48.102;11.772;2023-06-14T14:34:23;26.60;42.40
46117;DHT22;32591;48.102;11.772;2023-06-14T14:36:51;26.10;43.70
46117;DHT22;32591;48.102;11.772;2023-06-14T14:39:18;26.30;44.40
46117;DHT22;32591;48.102;11.772;2023-06-14T14:41:44;26.60;44.50
46117;DHT22;32591;48.102;11.772;2023-06-14T14:44:11;26.80;43.00
46117;DHT22;32591;48.102;11.772;2023-06-14T14:46:38;26.90;44.10
46117;DHT22;32591;48.102;11.772;2023-06-14T14:49:05;27.00;43.00
46117;DHT22;32591;48.102;11.772;2023-06-14T14:51:34;26.70;42.60
46117;DHT22;32591;48.102;11.772;2023-06-14T14:54:01;26.60;42.10
46117;DHT22;32591;48.102;11.772;2023-06-14T14:56:28;26.80;43.10
46117;DHT22;32591;48.102;11.772;2023-06-14T14:58:55;27.10;42.00
46117;DHT22;32591;48.102;11.772;2023-06-14T15:01:22;27.50;41.40
46117;DHT22;32591;48.102;11.772;2023-06-14T15:03:49;27.20;41.80
46117;DHT22;32591;48.102;11.772;2023-06-14T15:06:16;26.80;41.80
46117;DHT22;32591;48.102;11.772;2023-06-14T15:08:44;26.90;42.20
46117;DHT22;32591;48.102;11.772;2023-06-14T15:11:11;27.30;42.40
46117;DHT22;32591;48.102;11.772;2023-06-14T15:13:38;27.40;42.40
46117;DHT22;32591;48.102;11.772;2023-06-14T15:16:05;27.40;41.30
46117;DHT22;32591;48.102;11.772;2023-06-14T15:18:32;27.60;42.00
46117;DHT22;32591;48.102;11.772;2023-06-14T15:21:00;27.30;42.50
46117;DHT22;32591;48.102;11.772;2023-06-14T15:23:27;26.30;42.70
46117;DHT22;32591;48.102;11.772;2023-06-14T15:25:55;25.80;43.30
46117;DHT22;32591;48.102;11.772;2023-06-14T15:28:22;25.50;43.70
46117;DHT22;32591;48.102;11.772;2023-06-14T15:30:49;25.60;43.90
46117;DHT22;32591;48.102;11.772;2023-06-14T15:33:16;26.10;43.50